sensor_id;sensor_type;location;lat;lon;timestamp;P1;durP1;ratioP1;P2;durP2;ratioP2
23543;SDS011;11950;51.230;4.012;2023-08-07T00:00:49;5.50;;;1.15;;
23543;SDS011;11950;51.230;4.012;2023-08-07T00:03:16;9.07;;;1.30;;
23543;SDS011;11950;51.230;4.012;2023-08-07T00:05:45;4.88;;;1.20;;
23543;SDS011;11950;51.230;4.012;2023-08-07T00:08:12;10.15;;;1.70;;
23543;SDS011;11950;51.230;4.012;2023-08-07T00:10:38;3.95;;;1.20;;
23543;SDS011;11950;51.230;4.012;2023-08-07T00:13:04;8.55;;;1.10;;
23543;SDS011;11950;51.230;4.012;2023-08-07T00:15:31;7.07;;;1.83;;
23543;SDS011;11950;51.230;4.012;2023-08-07T00:17:59;6.72;;;1.20;;
23543;SDS011;11950;51.230;4.012;2023-08-07T00:20:26;10.05;;;1.60;;
23543;SDS011;11950;51.230;4.012;2023-08-07T00:22:52;6.28;;;1.30;;
23543;SDS011;11950;51.230;4.012;2023-08-07T00:25:18;7.90;;;1.27;;
23543;SDS011;11950;51.230;4.012;2023-08-07T00:27:44;10.32;;;1.25;;
23543;SDS011;11950;51.230;4.012;2023-08-07T00:30:11;4.60;;;0.95;;
23543;SDS011;11950;51.230;4.012;2023-08-07T00:32:37;6.07;;;1.20;;
23543;SDS011;11950;51.230;4.012;2023-08-07T00:35:05;8.75;;;1.27;;
23543;SDS011;11950;51.230;4.012;2023-08-07T00:37:33;6.53;;;1.42;;
23543;SDS011;11950;51.230;4.012;2023-08-07T00:40:01;8.93;;;1.45;;
23543;SDS011;11950;51.230;4.012;2023-08-07T00:42:28;5.97;;;1.38;;
23543;SDS011;11950;51.230;4.012;2023-08-07T00:44:54;5.82;;;1.33;;
23543;SDS011;11950;51.230;4.012;2023-08-07T00:47:20;5.85;;;1.40;;
23543;SDS011;11950;51.230;4.012;2023-08-07T00:49:47;6.90;;;1.40;;
23543;SDS011;11950;51.230;4.012;2023-08-07T00:52:14;3.70;;;0.98;;
23543;SDS011;11950;51.230;4.012;2023-08-07T00:54:40;5.40;;;1.00;;
23543;SDS011;11950;51.230;4.012;2023-08-07T00:57:11;11.13;;;1.30;;
23543;SDS011;11950;51.230;4.012;2023-08-07T00:59:40;7.20;;;1.08;;
23543;SDS011;11950;51.230;4.012;2023-08-07T01:02:07;9.82;;;1.10;;
23543;SDS011;11950;51.230;4.012;2023-08-07T01:04:35;5.07;;;1.00;;
23543;SDS011;11950;51.230;4.012;2023-08-07T01:07:02;3.28;;;1.10;;
23543;SDS011;11950;51.230;4.012;2023-08-07T01:09:28;3.30;;;1.10;;
23543;SDS011;11950;51.230;4.012;2023-08-07T01:17:14;4.63;;;0.95;;
23543;SDS011;11950;51.230;4.012;2023-08-07T01:19:42;7.53;;;1.30;;
23543;SDS011;11950;51.230;4.012;2023-08-07T01:22:12;4.45;;;0.90;;
23543;SDS011;11950;51.230;4.012;2023-08-07T01:24:40;6.47;;;1.95;;
23543;SDS011;11950;51.230;4.012;2023-08-07T01:32:24;6.28;;;0.90;;
23543;SDS011;11950;51.230;4.012;2023-08-07T01:34:54;7.43;;;1.00;;
23543;SDS011;11950;51.230;4.012;2023-08-07T01:37:25;5.75;;;1.23;;
23543;SDS011;11950;51.230;4.012;2023-08-07T01:40:00;5.10;;;1.15;;
23543;SDS011;11950;51.230;4.012;2023-08-07T01:42:29;7.43;;;1.10;;
23543;SDS011;11950;51.230;4.012;2023-08-07T01:44:58;6.78;;;1.08;;
23543;SDS011;11950;51.230;4.012;2023-08-07T01:47:24;4.85;;;1.08;;
23543;SDS011;11950;51.230;4.012;2023-08-07T01:49:50;3.85;;;0.95;;
23543;SDS011;11950;51.230;4.012;2023-08-07T01:52:16;6.13;;;1.00;;
23543;SDS011;11950;51.230;4.012;2023-08-07T01:54:43;5.47;;;1.00;;
23543;SDS011;11950;51.230;4.012;2023-08-07T01:57:09;4.95;;;0.93;;
23543;SDS011;11950;51.230;4.012;2023-08-07T01:59:35;7.38;;;0.90;;
23543;SDS011;11950;51.230;4.012;2023-08-07T02:02:03;6.03;;;0.95;;
23543;SDS011;11950;51.230;4.012;2023-08-07T02:04:30;2.90;;;0.90;;
23543;SDS011;11950;51.230;4.012;2023-08-07T02:06:56;8.43;;;1.20;;
23543;SDS011;11950;51.230;4.012;2023-08-07T02:09:23;5.57;;;1.10;;
23543;SDS011;11950;51.230;4.012;2023-08-07T02:11:49;9.13;;;1.02;;
23543;SDS011;11950;51.230;4.012;2023-08-07T02:14:15;6.60;;;1.17;;
23543;SDS011;11950;51.230;4.012;2023-08-07T02:16:42;8.50;;;1.10;;
23543;SDS011;11950;51.230;4.012;2023-08-07T02:19:08;4.90;;;0.90;;
23543;SDS011;11950;51.230;4.012;2023-08-07T02:21:34;3.58;;;0.80;;
23543;SDS011;11950;51.230;4.012;2023-08-07T02:24:00;10.15;;;1.30;;
23543;SDS011;11950;51.230;4.012;2023-08-07T02:26:27;6.35;;;1.08;;
23543;SDS011;11950;51.230;4.012;2023-08-07T02:28:53;5.88;;;1.38;;
23543;SDS011;11950;51.230;4.012;2023-08-07T02:31:19;3.05;;;1.08;;
23543;SDS011;11950;51.230;4.012;2023-08-07T02:33:46;4.80;;;1.10;;
23543;SDS011;11950;51.230;4.012;2023-08-07T02:36:13;6.70;;;1.20;;
23543;SDS011;11950;51.230;4.012;2023-08-07T02:38:39;6.43;;;1.38;;
23543;SDS011;11950;51.230;4.012;2023-08-07T02:41:05;4.68;;;1.00;;
23543;SDS011;11950;51.230;4.012;2023-08-07T02:43:34;4.20;;;1.10;;
23543;SDS011;11950;51.230;4.012;2023-08-07T02:46:00;7.25;;;1.35;;
23543;SDS011;11950;51.230;4.012;2023-08-07T02:48:26;3.47;;;1.00;;
23543;SDS011;11950;51.230;4.012;2023-08-07T02:50:52;7.95;;;1.58;;
23543;SDS011;11950;51.230;4.012;2023-08-07T02:53:19;5.22;;;1.30;;
23543;SDS011;11950;51.230;4.012;2023-08-07T02:55:45;4.22;;;1.13;;
23543;SDS011;11950;51.230;4.012;2023-08-07T02:58:11;5.22;;;1.10;;
23543;SDS011;11950;51.230;4.012;2023-08-07T03:00:37;5.35;;;1.67;;
23543;SDS011;11950;51.230;4.012;2023-08-07T03:03:04;5.30;;;1.27;;
23543;SDS011;11950;51.230;4.012;2023-08-07T03:05:30;4.90;;;1.20;;
23543;SDS011;11950;51.230;4.012;2023-08-07T03:07:56;4.15;;;1.20;;
23543;SDS011;11950;51.230;4.012;2023-08-07T03:10:23;3.55;;;1.08;;
23543;SDS011;11950;51.230;4.012;2023-08-07T03:12:49;4.43;;;1.23;;
23543;SDS011;11950;51.230;4.012;2023-08-07T03:15:15;5.47;;;1.17;;
23543;SDS011;11950;51.230;4.012;2023-08-07T03:17:41;4.50;;;1.00;;
23543;SDS011;11950;51.230;4.012;2023-08-07T03:20:08;5.28;;;1.00;;
23543;SDS011;11950;51.230;4.012;2023-08-07T03:22:35;5.63;;;0.93;;
23543;SDS011;11950;51.230;4.012;2023-08-07T03:25:01;5.90;;;1.08;;
23543;SDS011;11950;51.230;4.012;2023-08-07T03:27:28;6.80;;;1.40;;
23543;SDS011;11950;51.230;4.012;2023-08-07T03:29:54;2.88;;;1.05;;
23543;SDS011;11950;51.230;4.012;2023-08-07T03:32:24;4.13;;;1.02;;
23543;SDS011;11950;51.230;4.012;2023-08-07T03:34:51;2.70;;;1.08;;
23543;SDS011;11950;51.230;4.012;2023-08-07T03:37:17;3.03;;;0.98;;
23543;SDS011;11950;51.230;4.012;2023-08-07T03:39:44;4.97;;;1.35;;
23543;SDS011;11950;51.230;4.012;2023-08-07T03:42:14;7.63;;;1.05;;
23543;SDS011;11950;51.230;4.012;2023-08-07T03:44:43;7.07;;;1.13;;
23543;SDS011;11950;51.230;4.012;2023-08-07T03:47:11;6.13;;;1.00;;
23543;SDS011;11950;51.230;4.012;2023-08-07T03:49:37;5.05;;;1.10;;
23543;SDS011;11950;51.230;4.012;2023-08-07T03:52:04;5.97;;;1.45;;
23543;SDS011;11950;51.230;4.012;2023-08-07T03:54:31;2.90;;;1.13;;
23543;SDS011;11950;51.230;4.012;2023-08-07T03:56:57;4.97;;;1.25;;
23543;SDS011;11950;51.230;4.012;2023-08-07T03:59:24;7.97;;;1.40;;
23543;SDS011;11950;51.230;4.012;2023-08-07T04:01:50;4.43;;;1.00;;
23543;SDS011;11950;51.230;4.012;2023-08-07T04:04:16;5.30;;;1.10;;
23543;SDS011;11950;51.230;4.012;2023-08-07T04:06:42;3.85;;;0.98;;
23543;SDS011;11950;51.230;4.012;2023-08-07T04:09:09;6.22;;;1.63;;
23543;SDS011;11950;51.230;4.012;2023-08-07T04:11:36;4.82;;;1.30;;
23543;SDS011;11950;51.230;4.012;2023-08-07T04:14:03;4.80;;;1.20;;
23543;SDS011;11950;51.230;4.012;2023-08-07T04:16:30;4.03;;;1.08;;
23543;SDS011;11950;51.230;4.012;2023-08-07T04:18:57;2.20;;;1.20;;
23543;SDS011;11950;51.230;4.012;2023-08-07T04:21:23;5.30;;;1.10;;
23543;SDS011;11950;51.230;4.012;2023-08-07T04:23:49;4.88;;;1.20;;
23543;SDS011;11950;51.230;4.012;2023-08-07T04:26:15;3.58;;;1.05;;
23543;SDS011;11950;51.230;4.012;2023-08-07T04:28:42;5.47;;;1.20;;
23543;SDS011;11950;51.230;4.012;2023-08-07T04:31:08;7.50;;;1.38;;
23543;SDS011;11950;51.230;4.012;2023-08-07T04:33:34;4.20;;;1.00;;
23543;SDS011;11950;51.230;4.012;2023-08-07T04:36:01;5.38;;;1.08;;
23543;SDS011;11950;51.230;4.012;2023-08-07T04:38:28;6.78;;;1.00;;
23543;SDS011;11950;51.230;4.012;2023-08-07T04:40:54;4.28;;;1.10;;
23543;SDS011;11950;51.230;4.012;2023-08-07T04:43:20;5.18;;;1.13;;
23543;SDS011;11950;51.230;4.012;2023-08-07T04:45:47;1.95;;;0.85;;
23543;SDS011;11950;51.230;4.012;2023-08-07T04:48:13;3.95;;;1.13;;
23543;SDS011;11950;51.230;4.012;2023-08-07T04:50:41;5.30;;;1.15;;
23543;SDS011;11950;51.230;4.012;2023-08-07T04:53:07;3.10;;;1.00;;
23543;SDS011;11950;51.230;4.012;2023-08-07T04:55:33;3.97;;;1.02;;
23543;SDS011;11950;51.230;4.012;2023-08-07T04:57:59;6.35;;;1.08;;
23543;SDS011;11950;51.230;4.012;2023-08-07T05:00:27;5.95;;;1.15;;
23543;SDS011;11950;51.230;4.012;2023-08-07T05:02:54;3.55;;;1.02;;
23543;SDS011;11950;51.230;4.012;2023-08-07T05:05:20;6.43;;;1.75;;
23543;SDS011;11950;51.230;4.012;2023-08-07T05:07:47;4.88;;;1.17;;
23543;SDS011;11950;51.230;4.012;2023-08-07T05:10:13;3.78;;;1.45;;
23543;SDS011;11950;51.230;4.012;2023-08-07T05:12:40;7.15;;;1.17;;
23543;SDS011;11950;51.230;4.012;2023-08-07T05:15:06;7.50;;;1.52;;
23543;SDS011;11950;51.230;4.012;2023-08-07T05:17:32;3.50;;;1.30;;
23543;SDS011;11950;51.230;4.012;2023-08-07T05:19:59;3.47;;;1.30;;
23543;SDS011;11950;51.230;4.012;2023-08-07T05:22:25;4.47;;;1.73;;
23543;SDS011;11950;51.230;4.012;2023-08-07T05:24:51;5.13;;;1.20;;
23543;SDS011;11950;51.230;4.012;2023-08-07T05:27:17;4.32;;;0.90;;
23543;SDS011;11950;51.230;4.012;2023-08-07T05:29:43;6.78;;;1.40;;
23543;SDS011;11950;51.230;4.012;2023-08-07T05:32:13;6.07;;;1.08;;
23543;SDS011;11950;51.230;4.012;2023-08-07T05:34:40;7.05;;;1.10;;
23543;SDS011;11950;51.230;4.012;2023-08-07T05:37:07;7.78;;;1.50;;
23543;SDS011;11950;51.230;4.012;2023-08-07T05:39:34;5.32;;;1.17;;
23543;SDS011;11950;51.230;4.012;2023-08-07T05:42:01;5.18;;;0.98;;
23543;SDS011;11950;51.230;4.012;2023-08-07T05:44:27;4.07;;;1.13;;
23543;SDS011;11950;51.230;4.012;2023-08-07T05:46:54;4.93;;;1.08;;
23543;SDS011;11950;51.230;4.012;2023-08-07T05:49:21;5.55;;;1.25;;
23543;SDS011;11950;51.230;4.012;2023-08-07T05:51:51;4.15;;;1.08;;
23543;SDS011;11950;51.230;4.012;2023-08-07T05:54:17;3.75;;;1.00;;
23543;SDS011;11950;51.230;4.012;2023-08-07T05:56:43;3.28;;;0.88;;
23543;SDS011;11950;51.230;4.012;2023-08-07T05:59:09;4.95;;;1.10;;
23543;SDS011;11950;51.230;4.012;2023-08-07T06:01:36;5.78;;;1.10;;
23543;SDS011;11950;51.230;4.012;2023-08-07T06:04:02;1.85;;;0.90;;
23543;SDS011;11950;51.230;4.012;2023-08-07T06:06:29;6.70;;;1.08;;
23543;SDS011;11950;51.230;4.012;2023-08-07T06:08:55;6.97;;;1.30;;
23543;SDS011;11950;51.230;4.012;2023-08-07T06:11:22;5.22;;;1.10;;
23543;SDS011;11950;51.230;4.012;2023-08-07T06:13:48;6.43;;;1.20;;
23543;SDS011;11950;51.230;4.012;2023-08-07T06:16:14;4.15;;;0.98;;
23543;SDS011;11950;51.230;4.012;2023-08-07T06:18:41;5.07;;;1.58;;
23543;SDS011;11950;51.230;4.012;2023-08-07T06:21:07;3.08;;;1.10;;
23543;SDS011;11950;51.230;4.012;2023-08-07T06:23:36;2.47;;;0.95;;
23543;SDS011;11950;51.230;4.012;2023-08-07T06:26:03;5.53;;;1.20;;
23543;SDS011;11950;51.230;4.012;2023-08-07T06:28:33;3.63;;;1.10;;
23543;SDS011;11950;51.230;4.012;2023-08-07T06:31:02;5.55;;;1.05;;
23543;SDS011;11950;51.230;4.012;2023-08-07T06:33:30;5.65;;;1.10;;
23543;SDS011;11950;51.230;4.012;2023-08-07T06:35:57;4.70;;;1.13;;
23543;SDS011;11950;51.230;4.012;2023-08-07T06:38:23;6.03;;;1.20;;
23543;SDS011;11950;51.230;4.012;2023-08-07T06:40:50;5.80;;;1.42;;
23543;SDS011;11950;51.230;4.012;2023-08-07T06:43:16;6.63;;;1.10;;
23543;SDS011;11950;51.230;4.012;2023-08-07T06:45:43;4.72;;;1.08;;
23543;SDS011;11950;51.230;4.012;2023-08-07T06:48:12;4.63;;;1.00;;
23543;SDS011;11950;51.230;4.012;2023-08-07T06:50:38;8.00;;;1.40;;
23543;SDS011;11950;51.230;4.012;2023-08-07T06:53:04;7.85;;;1.33;;
23543;SDS011;11950;51.230;4.012;2023-08-07T06:55:31;4.90;;;1.20;;
23543;SDS011;11950;51.230;4.012;2023-08-07T06:57:59;4.50;;;1.45;;
23543;SDS011;11950;51.230;4.012;2023-08-07T07:00:25;5.72;;;1.20;;
23543;SDS011;11950;51.230;4.012;2023-08-07T07:02:51;6.13;;;1.50;;
23543;SDS011;11950;51.230;4.012;2023-08-07T07:05:18;5.60;;;1.58;;
23543;SDS011;11950;51.230;4.012;2023-08-07T07:07:44;7.55;;;1.02;;
23543;SDS011;11950;51.230;4.012;2023-08-07T07:10:11;4.20;;;1.20;;
23543;SDS011;11950;51.230;4.012;2023-08-07T07:12:37;3.42;;;1.40;;
23543;SDS011;11950;51.230;4.012;2023-08-07T07:15:04;2.08;;;1.25;;
23543;SDS011;11950;51.230;4.012;2023-08-07T07:17:30;6.38;;;1.15;;
23543;SDS011;11950;51.230;4.012;2023-08-07T07:19:57;4.22;;;1.23;;
23543;SDS011;11950;51.230;4.012;2023-08-07T07:22:23;5.40;;;1.30;;
23543;SDS011;11950;51.230;4.012;2023-08-07T07:24:49;2.78;;;1.13;;
23543;SDS011;11950;51.230;4.012;2023-08-07T07:27:16;4.43;;;1.33;;
23543;SDS011;11950;51.230;4.012;2023-08-07T07:29:44;3.00;;;1.17;;
23543;SDS011;11950;51.230;4.012;2023-08-07T07:32:11;3.10;;;1.35;;
23543;SDS011;11950;51.230;4.012;2023-08-07T07:34:37;4.20;;;1.05;;
23543;SDS011;11950;51.230;4.012;2023-08-07T07:37:03;5.22;;;1.48;;
23543;SDS011;11950;51.230;4.012;2023-08-07T07:39:30;4.93;;;1.10;;
23543;SDS011;11950;51.230;4.012;2023-08-07T07:41:56;3.38;;;1.13;;
23543;SDS011;11950;51.230;4.012;2023-08-07T07:44:22;3.08;;;1.20;;
23543;SDS011;11950;51.230;4.012;2023-08-07T07:46:48;3.75;;;0.93;;
23543;SDS011;11950;51.230;4.012;2023-08-07T07:49:15;3.30;;;1.05;;
23543;SDS011;11950;51.230;4.012;2023-08-07T07:51:41;3.85;;;1.20;;
23543;SDS011;11950;51.230;4.012;2023-08-07T07:54:10;5.70;;;1.40;;
23543;SDS011;11950;51.230;4.012;2023-08-07T07:56:37;4.72;;;1.48;;
23543;SDS011;11950;51.230;4.012;2023-08-07T07:59:03;3.92;;;1.20;;
23543;SDS011;11950;51.230;4.012;2023-08-07T08:01:29;3.03;;;1.10;;
23543;SDS011;11950;51.230;4.012;2023-08-07T08:03:55;5.80;;;1.00;;
23543;SDS011;11950;51.230;4.012;2023-08-07T08:06:21;4.28;;;1.08;;
23543;SDS011;11950;51.230;4.012;2023-08-07T08:08:48;4.32;;;0.95;;
23543;SDS011;11950;51.230;4.012;2023-08-07T08:11:14;5.55;;;1.10;;
23543;SDS011;11950;51.230;4.012;2023-08-07T08:13:40;2.15;;;1.10;;
23543;SDS011;11950;51.230;4.012;2023-08-07T08:16:06;3.92;;;1.08;;
23543;SDS011;11950;51.230;4.012;2023-08-07T08:18:33;2.88;;;1.20;;
23543;SDS011;11950;51.230;4.012;2023-08-07T08:20:59;4.28;;;0.90;;
23543;SDS011;11950;51.230;4.012;2023-08-07T08:23:25;3.42;;;1.05;;
23543;SDS011;11950;51.230;4.012;2023-08-07T08:25:51;3.03;;;1.20;;
23543;SDS011;11950;51.230;4.012;2023-08-07T08:28:18;3.13;;;0.90;;
23543;SDS011;11950;51.230;4.012;2023-08-07T08:30:44;4.70;;;1.00;;
23543;SDS011;11950;51.230;4.012;2023-08-07T08:33:10;4.80;;;1.10;;
23543;SDS011;11950;51.230;4.012;2023-08-07T08:35:40;4.10;;;1.40;;
23543;SDS011;11950;51.230;4.012;2023-08-07T08:38:06;4.82;;;1.73;;
23543;SDS011;11950;51.230;4.012;2023-08-07T08:40:33;1.90;;;0.90;;
23543;SDS011;11950;51.230;4.012;2023-08-07T08:43:00;1.85;;;1.00;;
23543;SDS011;11950;51.230;4.012;2023-08-07T08:45:27;3.60;;;1.00;;
23543;SDS011;11950;51.230;4.012;2023-08-07T08:48:03;1.90;;;0.88;;
23543;SDS011;11950;51.230;4.012;2023-08-07T08:50:32;5.22;;;1.10;;
23543;SDS011;11950;51.230;4.012;2023-08-07T08:52:59;3.45;;;0.90;;
23543;SDS011;11950;51.230;4.012;2023-08-07T08:55:28;2.25;;;1.02;;
23543;SDS011;11950;51.230;4.012;2023-08-07T08:57:55;3.88;;;1.00;;
23543;SDS011;11950;51.230;4.012;2023-08-07T09:02:54;2.22;;;0.93;;
23543;SDS011;11950;51.230;4.012;2023-08-07T09:05:21;1.55;;;0.90;;
23543;SDS011;11950;51.230;4.012;2023-08-07T09:07:48;2.42;;;1.10;;
23543;SDS011;11950;51.230;4.012;2023-08-07T09:10:15;1.75;;;0.90;;
23543;SDS011;11950;51.230;4.012;2023-08-07T09:12:47;2.30;;;0.93;;
23543;SDS011;11950;51.230;4.012;2023-08-07T09:15:26;1.85;;;1.00;;
23543;SDS011;11950;51.230;4.012;2023-08-07T09:17:55;2.85;;;0.90;;
23543;SDS011;11950;51.230;4.012;2023-08-07T09:20:22;2.40;;;1.00;;
23543;SDS011;11950;51.230;4.012;2023-08-07T09:22:48;3.00;;;1.02;;
23543;SDS011;11950;51.230;4.012;2023-08-07T09:25:14;3.45;;;1.00;;
23543;SDS011;11950;51.230;4.012;2023-08-07T09:27:53;2.78;;;0.98;;
23543;SDS011;11950;51.230;4.012;2023-08-07T09:30:21;3.38;;;0.98;;
23543;SDS011;11950;51.230;4.012;2023-08-07T09:32:53;2.85;;;1.17;;
23543;SDS011;11950;51.230;4.012;2023-08-07T09:35:22;3.20;;;1.10;;
23543;SDS011;11950;51.230;4.012;2023-08-07T09:37:48;3.00;;;0.82;;
23543;SDS011;11950;51.230;4.012;2023-08-07T09:40:15;2.20;;;0.90;;
23543;SDS011;11950;51.230;4.012;2023-08-07T09:42:42;1.90;;;1.20;;
23543;SDS011;11950;51.230;4.012;2023-08-07T09:45:24;0.90;;;0.90;;
23543;SDS011;11950;51.230;4.012;2023-08-07T09:48:02;1.45;;;0.85;;
23543;SDS011;11950;51.230;4.012;2023-08-07T09:50:30;2.20;;;0.95;;
23543;SDS011;11950;51.230;4.012;2023-08-07T09:52:57;1.77;;;0.80;;
23543;SDS011;11950;51.230;4.012;2023-08-07T09:55:24;2.55;;;1.00;;
23543;SDS011;11950;51.230;4.012;2023-08-07T09:57:50;2.08;;;0.93;;
23543;SDS011;11950;51.230;4.012;2023-08-07T10:00:17;1.45;;;1.23;;
23543;SDS011;11950;51.230;4.012;2023-08-07T10:02:47;1.35;;;0.98;;
23543;SDS011;11950;51.230;4.012;2023-08-07T10:05:15;2.05;;;0.88;;
23543;SDS011;11950;51.230;4.012;2023-08-07T10:07:42;0.90;;;0.75;;
23543;SDS011;11950;51.230;4.012;2023-08-07T10:10:09;2.25;;;0.80;;
23543;SDS011;11950;51.230;4.012;2023-08-07T10:12:36;0.80;;;0.77;;
23543;SDS011;11950;51.230;4.012;2023-08-07T10:15:04;2.25;;;0.85;;
23543;SDS011;11950;51.230;4.012;2023-08-07T10:17:31;2.88;;;0.80;;
23543;SDS011;11950;51.230;4.012;2023-08-07T10:19:58;2.22;;;1.00;;
23543;SDS011;11950;51.230;4.012;2023-08-07T10:22:25;2.47;;;0.80;;
23543;SDS011;11950;51.230;4.012;2023-08-07T10:24:53;1.55;;;0.80;;
23543;SDS011;11950;51.230;4.012;2023-08-07T10:27:21;1.10;;;0.63;;
23543;SDS011;11950;51.230;4.012;2023-08-07T10:29:51;4.07;;;0.80;;
23543;SDS011;11950;51.230;4.012;2023-08-07T10:32:19;1.13;;;0.80;;
23543;SDS011;11950;51.230;4.012;2023-08-07T10:34:49;1.83;;;1.00;;
23543;SDS011;11950;51.230;4.012;2023-08-07T10:40:06;6.57;;;1.00;;
23543;SDS011;11950;51.230;4.012;2023-08-07T10:42:55;1.75;;;0.88;;
23543;SDS011;11950;51.230;4.012;2023-08-07T10:45:26;2.40;;;0.80;;
23543;SDS011;11950;51.230;4.012;2023-08-07T10:48:06;3.33;;;0.75;;
23543;SDS011;11950;51.230;4.012;2023-08-07T10:50:35;1.40;;;0.80;;
23543;SDS011;11950;51.230;4.012;2023-08-07T10:56:35;3.30;;;0.90;;
23543;SDS011;11950;51.230;4.012;2023-08-07T10:59:10;1.98;;;0.80;;
23543;SDS011;11950;51.230;4.012;2023-08-07T11:04:08;2.38;;;0.93;;
23543;SDS011;11950;51.230;4.012;2023-08-07T11:06:40;1.38;;;0.93;;
23543;SDS011;11950;51.230;4.012;2023-08-07T11:09:08;3.10;;;1.10;;
23543;SDS011;11950;51.230;4.012;2023-08-07T11:11:42;3.20;;;0.90;;
23543;SDS011;11950;51.230;4.012;2023-08-07T11:14:11;1.85;;;0.88;;
23543;SDS011;11950;51.230;4.012;2023-08-07T11:16:39;1.88;;;0.80;;
23543;SDS011;11950;51.230;4.012;2023-08-07T11:19:06;1.02;;;0.80;;
23543;SDS011;11950;51.230;4.012;2023-08-07T11:21:34;4.88;;;0.90;;
23543;SDS011;11950;51.230;4.012;2023-08-07T11:24:01;1.70;;;0.90;;
23543;SDS011;11950;51.230;4.012;2023-08-07T11:26:28;1.17;;;0.98;;
23543;SDS011;11950;51.230;4.012;2023-08-07T11:28:55;1.27;;;0.85;;
23543;SDS011;11950;51.230;4.012;2023-08-07T11:31:22;1.33;;;0.82;;
23543;SDS011;11950;51.230;4.012;2023-08-07T11:33:50;1.38;;;0.93;;
23543;SDS011;11950;51.230;4.012;2023-08-07T11:36:21;2.08;;;0.98;;
23543;SDS011;11950;51.230;4.012;2023-08-07T11:38:48;1.20;;;0.90;;
23543;SDS011;11950;51.230;4.012;2023-08-07T11:41:15;2.00;;;0.80;;
23543;SDS011;11950;51.230;4.012;2023-08-07T11:43:42;2.40;;;0.80;;
23543;SDS011;11950;51.230;4.012;2023-08-07T11:46:10;3.15;;;0.70;;
23543;SDS011;11950;51.230;4.012;2023-08-07T11:48:38;2.70;;;0.82;;
23543;SDS011;11950;51.230;4.012;2023-08-07T11:51:06;2.15;;;0.90;;
23543;SDS011;11950;51.230;4.012;2023-08-07T11:53:35;2.05;;;0.80;;
23543;SDS011;11950;51.230;4.012;2023-08-07T11:56:03;1.25;;;0.80;;
23543;SDS011;11950;51.230;4.012;2023-08-07T11:58:37;1.30;;;0.80;;
23543;SDS011;11950;51.230;4.012;2023-08-07T12:01:06;2.83;;;0.80;;
23543;SDS011;11950;51.230;4.012;2023-08-07T12:03:36;3.03;;;0.90;;
23543;SDS011;11950;51.230;4.012;2023-08-07T12:06:07;1.10;;;0.70;;
23543;SDS011;11950;51.230;4.012;2023-08-07T12:08:35;3.60;;;1.02;;
23543;SDS011;11950;51.230;4.012;2023-08-07T12:11:06;2.92;;;0.80;;
23543;SDS011;11950;51.230;4.012;2023-08-07T12:13:41;2.97;;;0.70;;
23543;SDS011;11950;51.230;4.012;2023-08-07T12:16:09;1.58;;;0.80;;
23543;SDS011;11950;51.230;4.012;2023-08-07T12:18:35;1.83;;;0.80;;
23543;SDS011;11950;51.230;4.012;2023-08-07T12:21:04;2.25;;;0.70;;
23543;SDS011;11950;51.230;4.012;2023-08-07T12:23:33;3.20;;;0.80;;
23543;SDS011;11950;51.230;4.012;2023-08-07T12:26:00;1.02;;;0.70;;
23543;SDS011;11950;51.230;4.012;2023-08-07T12:28:27;1.15;;;0.80;;
23543;SDS011;11950;51.230;4.012;2023-08-07T12:30:53;2.10;;;0.70;;
23543;SDS011;11950;51.230;4.012;2023-08-07T12:33:21;2.67;;;0.70;;
23543;SDS011;11950;51.230;4.012;2023-08-07T12:35:47;0.82;;;0.60;;
23543;SDS011;11950;51.230;4.012;2023-08-07T12:38:13;1.98;;;0.68;;
23543;SDS011;11950;51.230;4.012;2023-08-07T12:40:40;0.95;;;0.70;;
23543;SDS011;11950;51.230;4.012;2023-08-07T12:43:07;1.08;;;0.50;;
23543;SDS011;11950;51.230;4.012;2023-08-07T12:45:33;0.70;;;0.70;;
23543;SDS011;11950;51.230;4.012;2023-08-07T12:48:00;0.93;;;0.60;;
23543;SDS011;11950;51.230;4.012;2023-08-07T12:50:27;3.30;;;0.60;;
23543;SDS011;11950;51.230;4.012;2023-08-07T12:52:53;0.80;;;0.63;;
23543;SDS011;11950;51.230;4.012;2023-08-07T12:55:20;1.58;;;0.80;;
23543;SDS011;11950;51.230;4.012;2023-08-07T12:57:47;1.95;;;0.63;;
23543;SDS011;11950;51.230;4.012;2023-08-07T13:00:15;1.55;;;0.60;;
23543;SDS011;11950;51.230;4.012;2023-08-07T13:02:42;2.42;;;0.65;;
23543;SDS011;11950;51.230;4.012;2023-08-07T13:05:10;2.55;;;0.65;;
23543;SDS011;11950;51.230;4.012;2023-08-07T13:07:36;0.82;;;0.50;;
23543;SDS011;11950;51.230;4.012;2023-08-07T13:10:06;1.58;;;0.50;;
23543;SDS011;11950;51.230;4.012;2023-08-07T13:12:37;4.30;;;0.80;;
23543;SDS011;11950;51.230;4.012;2023-08-07T13:15:05;0.80;;;0.50;;
23543;SDS011;11950;51.230;4.012;2023-08-07T13:17:32;1.10;;;0.50;;
23543;SDS011;11950;51.230;4.012;2023-08-07T13:19:59;1.85;;;0.50;;
23543;SDS011;11950;51.230;4.012;2023-08-07T13:22:26;1.13;;;0.30;;
23543;SDS011;11950;51.230;4.012;2023-08-07T13:24:54;2.40;;;0.60;;
23543;SDS011;11950;51.230;4.012;2023-08-07T13:27:20;1.00;;;0.40;;
23543;SDS011;11950;51.230;4.012;2023-08-07T13:29:47;1.23;;;0.40;;
23543;SDS011;11950;51.230;4.012;2023-08-07T13:32:14;1.05;;;0.40;;
23543;SDS011;11950;51.230;4.012;2023-08-07T13:34:40;2.58;;;0.43;;
23543;SDS011;11950;51.230;4.012;2023-08-07T13:37:06;3.85;;;0.50;;
23543;SDS011;11950;51.230;4.012;2023-08-07T13:39:33;1.92;;;0.60;;
23543;SDS011;11950;51.230;4.012;2023-08-07T13:41:59;0.90;;;0.50;;
23543;SDS011;11950;51.230;4.012;2023-08-07T13:44:25;1.15;;;0.43;;
23543;SDS011;11950;51.230;4.012;2023-08-07T13:46:52;2.63;;;0.50;;
23543;SDS011;11950;51.230;4.012;2023-08-07T13:49:18;0.50;;;0.50;;
23543;SDS011;11950;51.230;4.012;2023-08-07T13:51:46;3.72;;;0.57;;
23543;SDS011;11950;51.230;4.012;2023-08-07T13:54:13;2.75;;;0.40;;
23543;SDS011;11950;51.230;4.012;2023-08-07T13:56:39;2.35;;;0.55;;
23543;SDS011;11950;51.230;4.012;2023-08-07T13:59:05;1.83;;;0.70;;
23543;SDS011;11950;51.230;4.012;2023-08-07T14:01:31;3.10;;;0.60;;
23543;SDS011;11950;51.230;4.012;2023-08-07T14:03:58;1.73;;;0.50;;
23543;SDS011;11950;51.230;4.012;2023-08-07T14:06:25;2.85;;;0.60;;
23543;SDS011;11950;51.230;4.012;2023-08-07T14:08:54;0.77;;;0.45;;
23543;SDS011;11950;51.230;4.012;2023-08-07T14:11:20;2.13;;;0.50;;
23543;SDS011;11950;51.230;4.012;2023-08-07T14:13:46;3.00;;;0.80;;
23543;SDS011;11950;51.230;4.012;2023-08-07T14:16:13;4.25;;;0.77;;
23543;SDS011;11950;51.230;4.012;2023-08-07T14:18:39;1.15;;;0.40;;
23543;SDS011;11950;51.230;4.012;2023-08-07T14:21:05;1.33;;;0.50;;
23543;SDS011;11950;51.230;4.012;2023-08-07T14:23:31;1.30;;;0.85;;
23543;SDS011;11950;51.230;4.012;2023-08-07T14:25:58;1.80;;;0.50;;
23543;SDS011;11950;51.230;4.012;2023-08-07T14:28:24;1.00;;;0.43;;
23543;SDS011;11950;51.230;4.012;2023-08-07T14:30:51;0.60;;;0.45;;
23543;SDS011;11950;51.230;4.012;2023-08-07T14:33:17;1.02;;;0.70;;
23543;SDS011;11950;51.230;4.012;2023-08-07T14:35:43;1.05;;;0.50;;
23543;SDS011;11950;51.230;4.012;2023-08-07T14:38:10;1.50;;;0.60;;
23543;SDS011;11950;51.230;4.012;2023-08-07T14:40:36;2.35;;;0.50;;
23543;SDS011;11950;51.230;4.012;2023-08-07T14:43:06;4.13;;;0.60;;
23543;SDS011;11950;51.230;4.012;2023-08-07T14:45:33;1.55;;;0.68;;
23543;SDS011;11950;51.230;4.012;2023-08-07T14:47:59;1.15;;;0.65;;
23543;SDS011;11950;51.230;4.012;2023-08-07T14:50:25;2.95;;;0.50;;
23543;SDS011;11950;51.230;4.012;2023-08-07T14:52:51;2.35;;;0.60;;
23543;SDS011;11950;51.230;4.012;2023-08-07T14:55:17;1.45;;;0.70;;
23543;SDS011;11950;51.230;4.012;2023-08-07T14:57:44;2.30;;;0.73;;
23543;SDS011;11950;51.230;4.012;2023-08-07T15:00:10;1.00;;;0.60;;
23543;SDS011;11950;51.230;4.012;2023-08-07T15:02:38;2.00;;;0.50;;
23543;SDS011;11950;51.230;4.012;2023-08-07T15:05:06;1.33;;;0.63;;
23543;SDS011;11950;51.230;4.012;2023-08-07T15:07:32;1.08;;;0.82;;
23543;SDS011;11950;51.230;4.012;2023-08-07T15:09:59;0.60;;;0.50;;